createdAt,value
2022-10-03T00:00:16.129Z,4.10
2022-10-03T00:02:52.945Z,3.87
2022-10-03T00:05:29.093Z,3.47
2022-10-03T00:08:04.056Z,3.50
2022-10-03T00:10:35.824Z,3.90
2022-10-03T00:13:15.471Z,3.60
2022-10-03T00:15:49.810Z,3.20
2022-10-03T00:18:25.352Z,3.50
2022-10-03T00:21:02.518Z,3.73
2022-10-03T00:23:37.990Z,4.07
2022-10-03T00:26:25.284Z,4.40
2022-10-03T00:29:01.210Z,4.67
2022-10-03T00:31:39.174Z,4.77
2022-10-03T00:34:10.584Z,5.63
2022-10-03T00:36:44.259Z,6.67
2022-10-03T00:39:30.688Z,6.17
2022-10-03T00:42:16.492Z,8.10
2022-10-03T00:45:08.633Z,6.83
2022-10-03T00:47:51.644Z,7.27
2022-10-03T00:50:49.972Z,8.60
2022-10-03T00:53:24.529Z,7.97
2022-10-03T00:56:00.382Z,7.37
2022-10-03T00:58:35.649Z,7.70
2022-10-03T01:01:08.954Z,7.90
2022-10-03T01:03:43.560Z,8.67
2022-10-03T01:06:26.400Z,9.13
2022-10-03T01:09:06.720Z,9.10
2022-10-03T01:11:42.091Z,8.87
2022-10-03T01:14:17.744Z,7.23
2022-10-03T01:16:54.117Z,8.00
2022-10-03T01:19:30.101Z,8.10
2022-10-03T01:22:06.404Z,9.23
2022-10-03T01:24:55.281Z,8.70
2022-10-03T01:27:30.375Z,8.80
2022-10-03T01:30:19.811Z,8.70
2022-10-03T01:32:50.092Z,9.80
2022-10-03T01:35:35.928Z,9.10
2022-10-03T01:38:09.553Z,9.63
2022-10-03T01:40:39.436Z,9.80
2022-10-03T01:43:12.398Z,10.60
2022-10-03T01:45:48.007Z,9.70
2022-10-03T01:48:21.091Z,10.30
2022-10-03T01:50:52.692Z,9.03
2022-10-03T01:53:27.127Z,9.67
2022-10-03T01:55:58.108Z,10.17
2022-10-03T01:58:30.124Z,9.73
2022-10-03T02:01:03.123Z,9.30
2022-10-03T02:03:33.267Z,9.53
2022-10-03T02:06:04.784Z,8.67
2022-10-03T02:08:38.193Z,9.00
2022-10-03T02:11:08.255Z,8.83
2022-10-03T02:13:42.980Z,8.90
2022-10-03T02:16:16.426Z,9.10
2022-10-03T02:18:48.771Z,8.33
2022-10-03T02:21:19.144Z,8.43
2022-10-03T02:23:47.429Z,8.93
2022-10-03T02:26:39.365Z,8.37
2022-10-03T02:29:19.153Z,8.33
2022-10-03T02:32:14.134Z,8.30
2022-10-03T02:35:10.031Z,8.10
2022-10-03T02:37:54.232Z,8.37
2022-10-03T02:40:43.115Z,7.50
2022-10-03T02:43:27.487Z,8.37
2022-10-03T02:46:29.960Z,8.57
2022-10-03T02:49:16.735Z,8.07
2022-10-03T02:52:02.642Z,9.07
2022-10-03T02:54:43.216Z,8.90
2022-10-03T02:57:26.224Z,8.53
2022-10-03T03:00:12.714Z,8.67
2022-10-03T03:02:58.907Z,8.57
2022-10-03T03:05:31.663Z,8.60
2022-10-03T03:08:12.628Z,8.90
2022-10-03T03:10:54.086Z,8.77
2022-10-03T03:13:43.024Z,8.87
2022-10-03T03:16:26.764Z,8.07
2022-10-03T03:19:01.352Z,7.70
2022-10-03T03:21:36.153Z,7.90
2022-10-03T03:24:28.440Z,7.83
2022-10-03T03:27:02.430Z,7.70
2022-10-03T03:29:36.183Z,7.97
2022-10-03T03:32:07.396Z,8.00
2022-10-03T03:34:39.452Z,8.03
2022-10-03T03:37:11.256Z,8.13
2022-10-03T03:39:57.130Z,7.73
2022-10-03T03:42:40.211Z,7.13
2022-10-03T03:45:18.722Z,7.47
2022-10-03T03:48:07.580Z,6.47
2022-10-03T03:50:41.464Z,6.80
2022-10-03T03:53:18.483Z,7.07
2022-10-03T03:55:53.116Z,7.10
2022-10-03T03:58:28.384Z,7.70
2022-10-03T04:01:07.143Z,8.23
2022-10-03T04:03:40.856Z,8.07
2022-10-03T04:06:23.709Z,7.17
2022-10-03T04:09:04.317Z,7.53
2022-10-03T04:11:37.876Z,8.03
2022-10-03T04:14:27.473Z,7.90
2022-10-03T04:17:29.657Z,8.03
2022-10-03T04:20:04.416Z,8.37
2022-10-03T04:22:45.482Z,7.93
2022-10-03T04:25:31.875Z,8.27
2022-10-03T04:28:26.583Z,6.97
2022-10-03T04:30:59.779Z,8.87
2022-10-03T04:33:34.403Z,7.40
2022-10-03T04:36:30.847Z,7.77
2022-10-03T04:39:06.760Z,7.87
2022-10-03T04:41:43.091Z,7.63
2022-10-03T04:44:19.849Z,7.17
2022-10-03T04:46:51.763Z,7.37
2022-10-03T04:49:26.149Z,7.10
2022-10-03T04:51:58.060Z,7.90
2022-10-03T04:54:30.334Z,7.70
2022-10-03T04:57:02.072Z,7.87
2022-10-03T04:59:36.025Z,8.30
2022-10-03T05:02:06.185Z,8.47
2022-10-03T05:04:40.639Z,7.87
2022-10-03T05:07:13.536Z,8.13
2022-10-03T05:09:44.973Z,8.30
2022-10-03T05:12:17.034Z,9.40
2022-10-03T05:14:50.429Z,8.27
2022-10-03T05:17:23.477Z,8.20
2022-10-03T05:19:59.488Z,8.13
2022-10-03T05:22:34.222Z,8.47
2022-10-03T05:25:06.674Z,8.73
2022-10-03T05:27:37.993Z,9.43
2022-10-03T05:30:09.244Z,8.63
2022-10-03T05:32:41.525Z,9.27
2022-10-03T05:35:21.758Z,9.30
2022-10-03T05:37:58.795Z,9.50
2022-10-03T05:40:27.651Z,9.53
2022-10-03T05:43:11.164Z,8.50
2022-10-03T05:45:45.452Z,9.33
2022-10-03T05:48:19.552Z,9.73
2022-10-03T05:51:09.031Z,9.40
2022-10-03T05:53:54.859Z,9.03
2022-10-03T05:56:32.063Z,9.47
2022-10-03T05:59:24.303Z,9.00
2022-10-03T06:02:10.168Z,8.27
2022-10-03T06:04:49.876Z,8.33
2022-10-03T06:07:21.686Z,8.80
2022-10-03T06:10:19.658Z,8.63
2022-10-03T06:12:53.508Z,8.87
2022-10-03T06:15:33.954Z,8.43
2022-10-03T06:18:04.393Z,9.27
2022-10-03T06:20:47.741Z,9.57
2022-10-03T06:23:26.903Z,8.97
2022-10-03T06:26:05.052Z,9.17
2022-10-03T06:28:46.563Z,8.60
2022-10-03T06:31:37.869Z,10.23
2022-10-03T06:34:24.891Z,8.67
2022-10-03T06:37:10.609Z,7.63
2022-10-03T06:39:56.606Z,8.00
2022-10-03T06:42:39.628Z,8.73
2022-10-03T06:45:31.007Z,7.90
2022-10-03T06:48:14.297Z,7.37
2022-10-03T06:50:55.427Z,6.80
2022-10-03T06:53:30.539Z,7.90
2022-10-03T06:56:11.978Z,6.83
2022-10-03T06:58:51.638Z,7.43
2022-10-03T07:01:45.211Z,7.13
2022-10-03T07:04:25.125Z,6.40
2022-10-03T07:07:08.879Z,6.10
2022-10-03T07:09:55.628Z,6.37
2022-10-03T07:12:38.637Z,6.10
2022-10-03T07:15:17.832Z,5.13
2022-10-03T07:17:53.553Z,4.73
2022-10-03T07:20:36.593Z,4.20
2022-10-03T07:23:38.077Z,3.93
2022-10-03T07:26:32.608Z,3.97
2022-10-03T07:29:18.629Z,3.90
2022-10-03T07:31:53.975Z,3.83
2022-10-03T07:34:37.011Z,3.53
2022-10-03T07:37:37.152Z,4.00
2022-10-03T07:40:15.755Z,4.30
2022-10-03T07:43:01.733Z,4.43
2022-10-03T07:45:34.595Z,4.93
2022-10-03T07:48:26.701Z,4.90
2022-10-03T07:51:18.980Z,4.97
2022-10-03T07:54:04.829Z,4.90
2022-10-03T07:56:55.027Z,4.50
2022-10-03T07:59:38.139Z,4.07
2022-10-03T08:02:16.185Z,3.80
2022-10-03T08:05:03.015Z,4.10
2022-10-03T08:07:41.731Z,3.67
2022-10-03T08:10:18.973Z,3.43
2022-10-03T08:13:00.960Z,3.20
2022-10-03T08:15:32.497Z,3.37
2022-10-03T08:18:27.073Z,2.80
2022-10-03T08:20:56.712Z,3.00
2022-10-03T08:23:35.819Z,2.90
2022-10-03T08:26:11.444Z,3.07
2022-10-03T08:28:48.835Z,2.93
2022-10-03T08:31:34.284Z,3.13
2022-10-03T08:34:29.615Z,2.90
2022-10-03T08:37:18.540Z,3.10
2022-10-03T08:39:58.803Z,3.13
2022-10-03T08:42:41.853Z,2.77
2022-10-03T08:45:27.681Z,3.20
2022-10-03T08:48:27.618Z,3.10
2022-10-03T08:51:05.499Z,3.30
2022-10-03T08:54:02.532Z,2.87
2022-10-03T08:56:37.540Z,5.37
2022-10-03T08:59:33.170Z,4.37
2022-10-03T09:02:22.211Z,4.97
2022-10-03T09:05:01.969Z,4.40
2022-10-03T09:07:47.520Z,4.63
2022-10-03T09:10:33.317Z,3.33
2022-10-03T09:13:28.342Z,3.90
2022-10-03T09:16:14.867Z,3.90
2022-10-03T09:18:52.247Z,4.50
2022-10-03T09:21:38.123Z,3.63
2022-10-03T09:24:25.245Z,3.47
2022-10-03T09:27:12.374Z,2.90
2022-10-03T09:29:48.548Z,3.07
2022-10-03T09:32:40.593Z,2.50
2022-10-03T09:35:25.045Z,2.47
2022-10-03T09:38:16.669Z,2.53
2022-10-03T09:41:15.547Z,2.90
2022-10-03T09:44:02.822Z,2.53
2022-10-03T09:46:44.144Z,2.23
2022-10-03T09:49:30.880Z,2.40
2022-10-03T09:52:10.093Z,2.40
2022-10-03T09:55:01.513Z,2.67
2022-10-03T09:57:53.691Z,3.30
2022-10-03T10:00:25.018Z,2.50
2022-10-03T10:03:08.045Z,2.13
2022-10-03T10:05:46.820Z,2.50
2022-10-03T10:08:33.782Z,2.53
2022-10-03T10:11:23.791Z,2.50
2022-10-03T10:14:21.232Z,2.07
2022-10-03T10:17:07.876Z,2.30
2022-10-03T10:19:42.576Z,2.10
2022-10-03T10:22:21.263Z,1.97
2022-10-03T10:25:01.828Z,1.60
2022-10-03T10:28:00.427Z,1.90
2022-10-03T10:30:36.724Z,1.67
2022-10-03T10:33:30.586Z,1.80
2022-10-03T10:36:19.470Z,1.70
2022-10-03T10:39:12.317Z,1.70
2022-10-03T10:42:00.340Z,1.90
2022-10-03T10:44:49.441Z,1.80
2022-10-03T10:47:36.829Z,1.87
2022-10-03T10:50:19.157Z,1.80
2022-10-03T10:53:13.090Z,1.97
2022-10-03T10:55:59.675Z,1.50
2022-10-03T10:58:58.065Z,1.83
2022-10-03T11:01:43.913Z,2.10
2022-10-03T11:04:28.883Z,1.50
2022-10-03T11:07:13.624Z,2.30
2022-10-03T11:10:04.506Z,1.63
2022-10-03T11:12:46.565Z,1.53
2022-10-03T11:15:33.021Z,1.50
2022-10-03T11:18:24.916Z,1.30
2022-10-03T11:21:11.873Z,1.10
2022-10-03T11:23:55.516Z,1.43
2022-10-03T11:26:44.619Z,1.23
2022-10-03T11:29:31.560Z,1.20
2022-10-03T11:32:11.943Z,1.47
2022-10-03T11:34:57.601Z,1.77
2022-10-03T11:37:34.289Z,1.60
2022-10-03T11:40:11.695Z,1.57
2022-10-03T11:42:47.207Z,1.63
2022-10-03T11:45:18.747Z,2.00
2022-10-03T11:47:51.944Z,1.50
2022-10-03T11:50:31.565Z,1.57
2022-10-03T11:53:11.158Z,1.77
2022-10-03T11:55:44.096Z,1.50
2022-10-03T11:58:34.400Z,1.93
2022-10-03T12:01:12.888Z,1.47
2022-10-03T12:03:45.397Z,2.13
2022-10-03T12:06:34.747Z,1.60
2022-10-03T12:09:10.043Z,1.50
2022-10-03T12:11:44.167Z,1.57
2022-10-03T12:14:19.767Z,1.50
2022-10-03T12:16:57.435Z,1.60
2022-10-03T12:19:30.965Z,1.40
2022-10-03T12:22:02.047Z,1.67
2022-10-03T12:24:33.017Z,1.77
2022-10-03T12:27:05.922Z,1.63
2022-10-03T12:29:35.550Z,1.70
2022-10-03T12:32:13.855Z,1.40
2022-10-03T12:34:44.365Z,1.50
2022-10-03T12:37:33.518Z,1.70
2022-10-03T12:40:05.668Z,1.50
2022-10-03T12:42:36.596Z,1.40
2022-10-03T12:45:08.148Z,1.47
2022-10-03T12:47:56.895Z,1.47
2022-10-03T12:50:39.628Z,1.33
2022-10-03T12:53:25.796Z,2.20
2022-10-03T12:56:01.073Z,1.70
2022-10-03T12:58:35.183Z,1.83
2022-10-03T13:01:07.448Z,1.70
2022-10-03T13:03:40.241Z,1.53
2022-10-03T13:06:38.746Z,1.40
2022-10-03T13:09:23.939Z,1.73
2022-10-03T13:11:59.633Z,1.40
2022-10-03T13:14:32.833Z,1.80
2022-10-03T13:17:06.041Z,1.50
2022-10-03T13:19:40.613Z,1.57
2022-10-03T13:22:19.575Z,1.80
2022-10-03T13:24:51.912Z,1.73
2022-10-03T13:27:37.701Z,1.43
2022-10-03T13:30:11.465Z,1.53
2022-10-03T13:32:42.321Z,1.43
2022-10-03T13:35:40.060Z,1.67
2022-10-03T13:38:16.526Z,1.33
2022-10-03T13:40:46.337Z,1.47
2022-10-03T13:43:17.024Z,1.60
2022-10-03T13:45:47.742Z,2.00
2022-10-03T13:48:17.140Z,1.67
2022-10-03T13:50:51.213Z,1.80
2022-10-03T13:53:25.157Z,1.70
2022-10-03T13:55:58.469Z,1.90
2022-10-03T13:58:35.509Z,1.73
2022-10-03T14:01:21.513Z,1.70
2022-10-03T14:03:57.132Z,1.63
2022-10-03T14:06:31.836Z,1.27
2022-10-03T14:09:12.841Z,1.30
2022-10-03T14:11:46.027Z,1.43
2022-10-03T14:14:24.954Z,1.77
2022-10-03T14:16:57.818Z,1.60
2022-10-03T14:19:30.972Z,1.40
2022-10-03T14:22:08.115Z,1.67
2022-10-03T14:24:51.196Z,1.60
2022-10-03T14:27:31.652Z,1.50
2022-10-03T14:30:04.410Z,1.37
2022-10-03T14:32:53.597Z,1.40
2022-10-03T14:35:29.128Z,1.57
2022-10-03T14:37:58.948Z,1.60
2022-10-03T14:40:32.814Z,1.70
2022-10-03T14:43:08.680Z,1.77
2022-10-03T14:45:40.014Z,1.77
2022-10-03T14:48:14.470Z,1.53
2022-10-03T14:50:43.796Z,1.50
2022-10-03T14:53:15.677Z,1.60
2022-10-03T14:55:47.139Z,1.60
2022-10-03T14:58:19.177Z,1.57
2022-10-03T15:00:48.087Z,1.73
2022-10-03T15:03:30.517Z,1.70
2022-10-03T15:06:03.805Z,1.23
2022-10-03T15:08:35.497Z,1.73
2022-10-03T15:11:06.399Z,1.40
2022-10-03T15:13:35.653Z,1.50
2022-10-03T15:16:03.869Z,1.27
2022-10-03T15:18:33.524Z,1.40
2022-10-03T15:21:02.049Z,1.87
2022-10-03T15:23:34.097Z,1.70
2022-10-03T15:26:04.042Z,1.47
2022-10-03T15:28:37.252Z,1.57
2022-10-03T15:31:10.268Z,1.53
2022-10-03T15:33:41.014Z,1.90
2022-10-03T15:36:14.558Z,1.50
2022-10-03T15:38:44.176Z,1.10
2022-10-03T15:41:14.420Z,1.43
2022-10-03T15:43:47.019Z,1.90
2022-10-03T15:46:20.234Z,1.57
2022-10-03T15:48:54.025Z,2.00
2022-10-03T15:51:26.365Z,1.60
2022-10-03T15:53:58.142Z,1.60
2022-10-03T15:56:29.715Z,2.00
2022-10-03T15:59:00.608Z,1.50
2022-10-03T16:01:30.961Z,1.63
2022-10-03T16:04:02.543Z,1.50
2022-10-03T16:06:35.977Z,1.67
2022-10-03T16:09:07.858Z,2.13
2022-10-03T16:11:41.211Z,1.77
2022-10-03T16:14:16.213Z,1.63
2022-10-03T16:16:48.106Z,1.70
2022-10-03T16:19:25.690Z,1.70
2022-10-03T16:21:57.827Z,1.73
2022-10-03T16:24:31.513Z,1.87
2022-10-03T16:27:03.947Z,1.67
2022-10-03T16:29:33.266Z,1.80
2022-10-03T16:32:05.549Z,1.70
2022-10-03T16:34:36.521Z,1.83
2022-10-03T16:37:06.848Z,2.57
2022-10-03T16:39:36.149Z,2.47
2022-10-03T16:42:12.084Z,2.00
2022-10-03T16:44:41.686Z,2.30
2022-10-03T16:47:11.836Z,1.87
2022-10-03T16:50:02.631Z,2.27
2022-10-03T16:52:33.294Z,2.10
2022-10-03T16:55:03.802Z,1.93
2022-10-03T16:57:33.973Z,2.20
2022-10-03T17:00:07.617Z,1.93
2022-10-03T17:02:38.099Z,2.33
2022-10-03T17:05:09.551Z,1.80
2022-10-03T17:07:40.027Z,1.80
2022-10-03T17:10:19.127Z,1.80
2022-10-03T17:12:47.579Z,2.03
2022-10-03T17:15:21.178Z,1.90
2022-10-03T17:17:55.041Z,2.30
2022-10-03T17:20:35.619Z,3.10
2022-10-03T17:23:05.397Z,3.10
2022-10-03T17:25:40.663Z,3.30
2022-10-03T17:28:13.816Z,3.47
2022-10-03T17:30:46.502Z,3.13
2022-10-03T17:33:18.308Z,3.47
2022-10-03T17:35:51.289Z,3.40
2022-10-03T17:38:54.392Z,3.60
2022-10-03T17:41:18.876Z,3.07
2022-10-03T17:43:50.100Z,3.27
2022-10-03T17:46:21.832Z,2.87
2022-10-03T17:48:54.224Z,2.43
2022-10-03T17:51:32.420Z,6.40
2022-10-03T17:54:01.152Z,4.30
2022-10-03T17:56:32.235Z,4.90
2022-10-03T17:59:02.956Z,3.77
2022-10-03T18:01:35.610Z,3.43
2022-10-03T18:04:05.054Z,3.40
2022-10-03T18:06:38.017Z,3.23
2022-10-03T18:09:10.320Z,2.53
2022-10-03T18:11:40.373Z,2.63
2022-10-03T18:14:13.444Z,2.73
2022-10-03T18:16:46.961Z,2.77
2022-10-03T18:19:22.787Z,2.60
2022-10-03T18:21:58.826Z,3.13
2022-10-03T18:24:36.386Z,3.20
2022-10-03T18:27:11.074Z,3.47
2022-10-03T18:29:42.689Z,2.93
2022-10-03T18:32:14.980Z,3.30
2022-10-03T18:34:46.307Z,3.37
2022-10-03T18:37:32.652Z,4.07
2022-10-03T18:40:05.480Z,3.67
2022-10-03T18:42:35.823Z,3.57
2022-10-03T18:45:04.045Z,2.93
2022-10-03T18:47:35.185Z,3.10
2022-10-03T18:50:07.435Z,3.47
2022-10-03T18:52:39.230Z,3.20
2022-10-03T18:55:16.624Z,3.97
2022-10-03T18:57:48.551Z,3.30
2022-10-03T19:00:18.918Z,3.50
2022-10-03T19:02:50.049Z,3.70
2022-10-03T19:05:20.155Z,3.87
2022-10-03T19:07:50.616Z,3.17
2022-10-03T19:10:35.999Z,3.47
2022-10-03T19:13:09.707Z,3.00
2022-10-03T19:15:48.787Z,3.40
2022-10-03T19:18:22.103Z,2.90
2022-10-03T19:20:52.241Z,4.10
2022-10-03T19:23:26.049Z,4.20
2022-10-03T19:25:57.630Z,3.90
2022-10-03T19:28:28.616Z,3.70
2022-10-03T19:31:00.830Z,3.47
2022-10-03T19:33:29.389Z,3.87
2022-10-03T19:36:00.082Z,4.13
2022-10-03T19:38:29.722Z,3.80
2022-10-03T19:41:01.922Z,3.77
2022-10-03T19:43:41.105Z,4.27
2022-10-03T19:46:13.323Z,4.00
2022-10-03T19:48:44.519Z,4.07
2022-10-03T19:51:21.597Z,3.57
2022-10-03T19:53:52.845Z,3.90
2022-10-03T19:56:23.636Z,3.90
2022-10-03T19:58:59.703Z,3.83
2022-10-03T20:01:28.102Z,3.70
2022-10-03T20:03:58.007Z,3.97
2022-10-03T20:06:28.531Z,3.77
2022-10-03T20:08:58.860Z,3.90
2022-10-03T20:11:42.768Z,3.93
2022-10-03T20:14:15.600Z,3.53
2022-10-03T20:16:46.106Z,3.40
2022-10-03T20:19:15.785Z,3.30
2022-10-03T20:21:44.048Z,3.40
2022-10-03T20:24:14.231Z,3.37
2022-10-03T20:26:47.495Z,3.20
2022-10-03T20:29:33.929Z,3.70
2022-10-03T20:32:02.932Z,4.07
2022-10-03T20:34:32.116Z,4.07
2022-10-03T20:37:08.984Z,4.13
2022-10-03T20:39:38.686Z,4.60
2022-10-03T20:42:11.548Z,4.70
2022-10-03T20:44:55.841Z,4.40
2022-10-03T20:47:31.323Z,3.67
2022-10-03T20:50:00.731Z,4.40
2022-10-03T20:52:29.128Z,3.57
2022-10-03T20:55:00.475Z,3.60
2022-10-03T20:57:32.315Z,3.43
2022-10-03T21:00:06.316Z,3.37
2022-10-03T21:02:38.302Z,2.73
2022-10-03T21:05:07.724Z,2.73
2022-10-03T21:07:42.002Z,3.37
2022-10-03T21:10:17.285Z,2.70
2022-10-03T21:12:48.788Z,3.13
2022-10-03T21:15:24.376Z,2.63
2022-10-03T21:17:56.274Z,3.00
2022-10-03T21:20:25.905Z,2.27
2022-10-03T21:22:55.846Z,2.43
2022-10-03T21:25:26.835Z,2.40
2022-10-03T21:27:57.483Z,2.50
2022-10-03T21:30:35.845Z,2.43
2022-10-03T21:33:09.704Z,2.47
2022-10-03T21:35:39.921Z,2.50
2022-10-03T21:38:14.504Z,2.87
2022-10-03T21:41:00.857Z,2.40
2022-10-03T21:43:37.536Z,2.73
2022-10-03T21:46:09.266Z,2.53
2022-10-03T21:48:42.473Z,2.67
2022-10-03T21:51:16.801Z,3.17
2022-10-03T21:53:48.579Z,2.50
2022-10-03T21:56:28.033Z,2.27
2022-10-03T21:59:11.293Z,2.40
2022-10-03T22:01:43.263Z,2.13
2022-10-03T22:04:16.506Z,2.30
2022-10-03T22:06:47.995Z,2.63
2022-10-03T22:09:17.271Z,2.27
2022-10-03T22:11:47.660Z,2.40
2022-10-03T22:14:24.570Z,2.53
2022-10-03T22:16:56.658Z,2.33
2022-10-03T22:19:29.798Z,2.43
2022-10-03T22:22:05.463Z,2.60
2022-10-03T22:24:38.768Z,2.43
2022-10-03T22:27:10.374Z,2.40
2022-10-03T22:29:42.777Z,2.33
2022-10-03T22:32:13.149Z,2.37
2022-10-03T22:34:47.035Z,2.40
2022-10-03T22:37:15.836Z,2.47
2022-10-03T22:39:48.278Z,2.43
2022-10-03T22:42:17.188Z,2.20
2022-10-03T22:44:48.229Z,2.70
2022-10-03T22:47:20.963Z,2.50
2022-10-03T22:49:51.508Z,2.20
2022-10-03T22:52:22.609Z,2.53
2022-10-03T22:54:51.857Z,1.93
2022-10-03T22:57:20.261Z,2.50
2022-10-03T22:59:51.536Z,2.80
2022-10-03T23:02:20.533Z,2.67
2022-10-03T23:04:50.372Z,2.40
2022-10-03T23:07:30.808Z,2.37
2022-10-03T23:10:02.592Z,2.37
2022-10-03T23:12:33.061Z,2.40
2022-10-03T23:15:05.319Z,2.50
2022-10-03T23:17:40.439Z,2.57
2022-10-03T23:20:13.513Z,2.33
2022-10-03T23:22:42.443Z,2.60
2022-10-03T23:25:16.549Z,2.80
2022-10-03T23:27:50.567Z,2.60
2022-10-03T23:30:53.202Z,2.63
2022-10-03T23:33:40.143Z,2.20
2022-10-03T23:36:15.676Z,2.43
2022-10-03T23:39:07.658Z,2.37
2022-10-03T23:41:57.897Z,2.40
2022-10-03T23:44:49.290Z,2.20
2022-10-03T23:47:19.037Z,2.50
2022-10-03T23:49:48.869Z,3.07
2022-10-03T23:52:21.296Z,2.90
2022-10-03T23:54:50.203Z,3.20
2022-10-03T23:57:20.216Z,2.80
2022-10-03T23:59:48.905Z,3.20
